Antigo, Wisconsin
Current Conditions -  °F | °C
As of 9:35 AM on Saturday 20 Dec 2014 (Local Time) from KAIG Reporting Station
Haze Haze  
Wind Chill: -5°   Ceiling: 500
Heat Index: -5°   Visibility: 2.5mi
Dew Point: -6°   Wind: 0mph
Humidity: 98%   Direction: NA
Pressure: 30.2"   Gusts: NA
Location:  45.14°N, 89.15°W
Report Text: KAIG 201535Z AUTO 00000KT 2 1/2SM BR OVC005 M05/M05 A3020 RMK AO2 T10521055
Loading
Personal Weather Stations






























Interactive Weather Map New forecast layout! Learn more

10-Day Weather Forecast

Advertisements
Track Severe Weather on mobile